Home PIREPS Pireps

Flight SAB3625

  • Submitted By: Carl Hermans
  • Departure Airport: Bruxelles National (EBBR)
  • Arrival Airport: Cote d'Azur International Airport (LFMN)
  • Aircraft: B737-500 (OO-SAB)
  • Flight Time: 01.52
  • Date Submitted: 28/02/2018
  • Status: Accepted
Flight Details
Gross Revenue:
(129 load / € 0.00 per unit
€ 0.00
Fuel Cost:
(3305 fuel used @ 5.1 / unit)
€ 16,855.50

Additional Log Information:

View Log

Aircraft Used in flight is x737-800 tuifly
17:24 Brakes are On
17:24 Brakes are Released
17:25 Brakes are On
17:25 Brakes are Released
17:25 Brakes are On
17:25 Brakes are Released
17:25 Brakes are On
17:25 Brakes are Released
17:26 Brakes are On
17:26 Brakes are Released
17:28 You Took off @ 163 Knots and Flaps at Position 3
Departure Weather
EBBR 281550Z 08015KT CAVOK M03/M16 Q1015 NOSIGrn
17:28 Landing Gear Up @ 179 Knots and 480 Feet
17:29 Below 10000 feet you are not allowed to go over 250 knots
17:31 Above FL100 you need to switch of the landing lights
19:12 Landing Gear Down @ 163 Knots and 2250 Feet
19:15 You Landed @ 159 Knots and with -700 Vertical Speed
Arrival Weather
LFMN 281800Z 03013KT 010V090 9999 -SN BKN021 02/M02 Q1012 NOSIGrn
19:15 Your Landing was very hard
19:15 Brakes are On
19:16 Brakes are Released
19:16 Brussels Bel-Track1.0.1.2

Route Map

Corporate About Us Our Team Vacancies Information Fleet Route Network Rules and Regulations Operations Flight Schedules Event Center Tours Partners IVAO Vatsim Acars dev FSCB

fb Users Online Belgium Michael Bitu,
2 Pilot(s) and 118 Guest(s) Online
CMS by phpVMS - Design by Crazycreatives.com - Copyright © 2018 - Brussels Airlines Virtual